Terminal Aerodrome Forecast
Issued by NWS

Home | Current Version | Previous Version | Text Only | Print | Product List | Glossary On
Versions: 1 2 3 4 5 6 7 8 9 10 11 12 13 14 15 16 17 18
000
FTUS43 KDTX 201700
TAFDET
TAF
KDET 201728Z 2018/2118 22005KT 6SM BR SCT010 BKN025
     FM202100 26008KT 5SM -SHRA BR OVC040
     FM210000 26004KT P6SM SCT045 BKN120
     FM210900 26003KT 4SM BR BKN100
     FM211300 24005KT P6SM OVC060=

USA.gov is the U.S. government's official web portal to all federal, state and local government web resources and services.